Time;durP1;ratioP1;P1;durP2;ratioP2;P2;SDS_P1;SDS_P2;PMS_P1;PMS_P2;Temp;Humidity;BMP_temperature;BMP_pressure;BME280_temperature;BME280_humidity;BME280_pressure;Samples;Min_cycle;Max_cycle;Signal;HPM_P1;HPM_P2
2020/12/15 00:01:19;;;;;;;30.90;23.97;;;;;;;;;;5010120;28;20188;-55
2020/12/15 00:03:44;;;;;;;32.50;24.13;;;;;;;;;;5009362;28;20185;-56
2020/12/15 00:06:09;;;;;;;28.77;23.50;;;;;;;;;;5007791;28;21130;-55
2020/12/15 00:08:34;;;;;;;26.75;23.10;;;;;;;;;;5000604;28;20547;-55
2020/12/15 00:11:00;;;;;;;28.85;22.92;;;;;;;;;;5015430;28;20246;-55
2020/12/15 00:13:25;;;;;;;27.20;22.40;;;;;;;;;;5008671;28;20253;-56
2020/12/15 00:15:50;;;;;;;29.38;23.20;;;;;;;;;;5016211;28;20176;-56
2020/12/15 00:18:15;;;;;;;30.77;24.43;;;;;;;;;;4999967;28;20664;-56
2020/12/15 00:20:41;;;;;;;28.45;23.15;;;;;;;;;;5000531;28;20213;-56
2020/12/15 00:23:06;;;;;;;25.60;21.20;;;;;;;;;;5019758;28;20642;-56
2020/12/15 00:25:31;;;;;;;27.43;23.30;;;;;;;;;;5007328;28;20224;-56
2020/12/15 00:27:57;;;;;;;25.33;21.90;;;;;;;;;;4996968;28;20190;-55
2020/12/15 00:30:23;;;;;;;27.40;22.80;;;;;;;;;;5005854;28;20213;-56
2020/12/15 00:32:49;;;;;;;30.37;20.93;;;;;;;;;;5020249;28;20179;-56
2020/12/15 00:35:14;;;;;;;25.00;21.20;;;;;;;;;;5020204;28;20595;-55
2020/12/15 00:37:39;;;;;;;28.00;21.70;;;;;;;;;;5007661;28;20625;-55
2020/12/15 00:40:04;;;;;;;27.70;22.30;;;;;;;;;;5011343;28;20202;-56
2020/12/15 00:42:29;;;;;;;28.30;23.30;;;;;;;;;;5012490;28;20173;-55
2020/12/15 00:44:55;;;;;;;29.70;22.75;;;;;;;;;;5016351;28;20659;-56
2020/12/15 00:47:20;;;;;;;26.53;22.00;;;;;;;;;;5014463;28;20719;-56
2020/12/15 00:49:45;;;;;;;25.00;21.33;;;;;;;;;;5014299;28;20194;-56
2020/12/15 00:52:10;;;;;;;23.30;19.63;;;;;;;;;;5012066;28;20635;-56
2020/12/15 00:54:35;;;;;;;24.25;20.75;;;;;;;;;;5014738;28;20176;-55
2020/12/15 00:57:00;;;;;;;25.50;20.88;;;;;;;;;;5014837;28;20205;-56
2020/12/15 00:59:25;;;;;;;25.63;20.90;;;;;;;;;;5018972;28;20181;-56
2020/12/15 01:01:51;;;;;;;22.92;19.83;;;;;;;;;;5012607;28;20173;-56
2020/12/15 01:04:16;;;;;;;27.95;22.10;;;;;;;;;;5007856;28;20259;-56
2020/12/15 01:06:41;;;;;;;25.30;22.03;;;;;;;;;;5002616;28;20670;-56
2020/12/15 01:09:07;;;;;;;25.63;21.73;;;;;;;;;;5016485;28;20329;-55
2020/12/15 01:11:33;;;;;;;24.40;21.10;;;;;;;;;;5016118;28;20402;-56
2020/12/15 01:13:58;;;;;;;22.17;19.87;;;;;;;;;;5019642;28;20180;-56
2020/12/15 01:16:24;;;;;;;24.33;20.85;;;;;;;;;;5007821;28;20599;-56
2020/12/15 01:18:49;;;;;;;27.43;21.20;;;;;;;;;;5001781;28;20636;-56
2020/12/15 01:21:14;;;;;;;25.13;20.50;;;;;;;;;;5009662;28;20175;-56
2020/12/15 01:23:39;;;;;;;23.87;20.53;;;;;;;;;;5007570;28;20226;-55
2020/12/15 01:26:06;;;;;;;24.80;19.60;;;;;;;;;;5007008;28;20327;-55
2020/12/15 01:28:33;;;;;;;25.43;21.17;;;;;;;;;;5008315;28;20264;-56
2020/12/15 01:30:58;;;;;;;23.97;20.40;;;;;;;;;;5008161;28;21172;-56
2020/12/15 01:33:23;;;;;;;24.30;20.63;;;;;;;;;;5019984;28;21178;-55
2020/12/15 01:35:48;;;;;;;24.60;20.77;;;;;;;;;;5017481;28;20180;-55
2020/12/15 01:38:13;;;;;;;23.70;20.70;;;;;;;;;;5013519;28;20174;-55
2020/12/15 01:40:38;;;;;;;23.02;20.30;;;;;;;;;;5018458;28;20656;-55
2020/12/15 01:43:03;;;;;;;23.73;20.65;;;;;;;;;;5015087;28;20188;-58
2020/12/15 01:45:28;;;;;;;24.02;21.23;;;;;;;;;;5017642;28;20169;-57
2020/12/15 01:47:54;;;;;;;24.40;20.23;;;;;;;;;;5011679;28;20213;-56
2020/12/15 01:50:19;;;;;;;24.13;20.40;;;;;;;;;;5007401;28;20667;-57
2020/12/15 01:52:45;;;;;;;29.27;22.10;;;;;;;;;;5018513;28;20192;-57
2020/12/15 01:55:11;;;;;;;24.33;21.40;;;;;;;;;;5013219;28;20184;-56
2020/12/15 01:57:39;;;;;;;24.43;21.17;;;;;;;;;;5010476;28;20182;-56
2020/12/15 02:00:04;;;;;;;24.93;21.50;;;;;;;;;;5017009;28;20690;-56
2020/12/15 02:02:29;;;;;;;26.42;22.27;;;;;;;;;;5004311;28;20701;-57
2020/12/15 02:04:54;;;;;;;23.58;20.52;;;;;;;;;;5002435;28;20186;-57
2020/12/15 02:07:20;;;;;;;26.20;21.27;;;;;;;;;;5008915;28;20232;-57
2020/12/15 02:09:45;;;;;;;26.70;22.50;;;;;;;;;;5013957;28;20717;-57
2020/12/15 02:12:11;;;;;;;25.67;22.67;;;;;;;;;;5006838;28;20174;-57
2020/12/15 02:14:36;;;;;;;26.57;23.73;;;;;;;;;;5006929;28;20174;-57
2020/12/15 02:17:02;;;;;;;26.38;22.63;;;;;;;;;;5013571;28;20751;-57
2020/12/15 02:19:27;;;;;;;26.63;22.30;;;;;;;;;;5009906;28;20225;-57
2020/12/15 02:21:53;;;;;;;31.25;23.88;;;;;;;;;;5010458;28;20175;-57
2020/12/15 02:24:18;;;;;;;26.50;22.00;;;;;;;;;;5008369;28;20209;-58
2020/12/15 02:26:44;;;;;;;29.07;23.80;;;;;;;;;;5015557;28;20655;-57
2020/12/15 02:29:09;;;;;;;31.03;25.50;;;;;;;;;;5015498;28;20219;-57
2020/12/15 02:31:34;;;;;;;29.70;25.00;;;;;;;;;;5012533;28;20193;-57
2020/12/15 02:33:59;;;;;;;28.02;24.58;;;;;;;;;;5016271;28;20324;-57
2020/12/15 02:36:28;;;;;;;27.23;24.23;;;;;;;;;;5015417;28;20161;-58
2020/12/15 02:38:54;;;;;;;29.33;25.10;;;;;;;;;;5020478;28;20525;-55
2020/12/15 02:41:19;;;;;;;28.17;23.03;;;;;;;;;;5018847;28;21162;-57
2020/12/15 02:43:44;;;;;;;28.05;25.00;;;;;;;;;;5010926;28;20184;-57
2020/12/15 02:46:09;;;;;;;30.15;26.48;;;;;;;;;;5012699;28;20264;-57
2020/12/15 02:48:34;;;;;;;30.85;25.42;;;;;;;;;;5011044;28;20181;-55
2020/12/15 02:50:59;;;;;;;29.73;24.75;;;;;;;;;;5017811;28;20640;-56
2020/12/15 02:53:25;;;;;;;30.83;26.23;;;;;;;;;;5019669;28;20205;-56
2020/12/15 02:55:50;;;;;;;30.23;24.83;;;;;;;;;;5001809;28;20178;-55
2020/12/15 02:58:15;;;;;;;30.08;24.05;;;;;;;;;;5013924;28;20646;-56
2020/12/15 03:00:40;;;;;;;29.30;24.65;;;;;;;;;;5013593;28;20260;-56
2020/12/15 03:03:05;;;;;;;30.15;24.85;;;;;;;;;;5020186;28;20189;-56
2020/12/15 03:05:30;;;;;;;29.42;23.80;;;;;;;;;;5005537;28;20735;-55
2020/12/15 03:07:56;;;;;;;29.17;25.35;;;;;;;;;;5015437;28;20220;-56
2020/12/15 03:10:21;;;;;;;28.97;24.00;;;;;;;;;;5022206;28;20204;-55
2020/12/15 03:12:46;;;;;;;29.40;24.73;;;;;;;;;;5012793;28;20554;-55
2020/12/15 03:15:13;;;;;;;30.38;25.42;;;;;;;;;;5018251;28;20187;-56
2020/12/15 03:17:38;;;;;;;33.80;24.70;;;;;;;;;;5015116;28;20177;-55
2020/12/15 03:20:03;;;;;;;29.92;24.35;;;;;;;;;;5005515;28;20646;-55
2020/12/15 03:22:29;;;;;;;31.27;26.00;;;;;;;;;;5017201;28;20542;-56
2020/12/15 03:24:54;;;;;;;28.43;24.00;;;;;;;;;;5015571;28;20228;-56
2020/12/15 03:27:19;;;;;;;31.10;24.50;;;;;;;;;;5020177;28;20631;-55
2020/12/15 03:29:44;;;;;;;28.60;24.10;;;;;;;;;;5004335;28;20302;-55
2020/12/15 03:32:09;;;;;;;27.67;24.42;;;;;;;;;;5021173;28;20171;-56
2020/12/15 03:34:35;;;;;;;28.97;24.63;;;;;;;;;;5007977;28;20218;-55
2020/12/15 03:37:00;;;;;;;30.77;25.03;;;;;;;;;;5011962;28;20524;-55
2020/12/15 03:39:25;;;;;;;33.63;24.87;;;;;;;;;;5014857;28;20592;-55
2020/12/15 03:41:54;;;;;;;31.13;26.90;;;;;;;;;;5006548;28;20184;-54
2020/12/15 03:44:19;;;;;;;32.90;27.60;;;;;;;;;;5020361;28;20185;-54
2020/12/15 03:46:44;;;;;;;33.05;26.38;;;;;;;;;;5015407;28;20622;-57
2020/12/15 03:49:09;;;;;;;29.73;23.75;;;;;;;;;;4996584;28;20264;-54
2020/12/15 03:51:34;;;;;;;31.77;25.88;;;;;;;;;;5010211;28;20179;-55
2020/12/15 03:54:00;;;;;;;32.90;26.42;;;;;;;;;;5000206;28;20639;-55
2020/12/15 03:56:25;;;;;;;33.17;26.67;;;;;;;;;;5019269;28;20167;-56
2020/12/15 03:58:50;;;;;;;35.00;27.43;;;;;;;;;;5009112;28;20193;-55
2020/12/15 04:01:15;;;;;;;32.15;26.27;;;;;;;;;;5006423;28;20204;-55
2020/12/15 04:03:40;;;;;;;33.33;27.00;;;;;;;;;;5007891;28;20551;-55
2020/12/15 04:06:07;;;;;;;31.20;25.90;;;;;;;;;;5012313;28;20219;-55
2020/12/15 04:08:32;;;;;;;30.90;25.47;;;;;;;;;;5016424;28;20173;-55
2020/12/15 04:10:57;;;;;;;32.42;26.27;;;;;;;;;;5014280;28;20638;-55
2020/12/15 04:13:22;;;;;;;35.55;26.35;;;;;;;;;;5012536;28;20185;-55
2020/12/15 04:15:48;;;;;;;36.03;27.13;;;;;;;;;;5014211;28;20223;-56
2020/12/15 04:21:10;;;;;;;32.60;25.70;;;;;;;;;;5010758;28;20197;-56
2020/12/15 04:23:35;;;;;;;34.50;26.33;;;;;;;;;;5014885;28;20632;-55
2020/12/15 04:26:01;;;;;;;33.60;26.38;;;;;;;;;;5014820;28;21236;-56
2020/12/15 04:28:26;;;;;;;31.83;26.30;;;;;;;;;;5015458;28;20173;-55
2020/12/15 04:30:51;;;;;;;35.70;27.47;;;;;;;;;;5019480;28;20211;-56
2020/12/15 04:33:17;;;;;;;36.33;28.52;;;;;;;;;;5010734;28;20182;-56
2020/12/15 04:35:42;;;;;;;33.92;26.40;;;;;;;;;;5012673;28;20176;-56
2020/12/15 04:38:07;;;;;;;35.07;27.13;;;;;;;;;;5016080;28;20227;-56
2020/12/15 04:40:32;;;;;;;33.40;26.23;;;;;;;;;;5010758;28;20173;-56
2020/12/15 04:42:59;;;;;;;33.80;26.47;;;;;;;;;;5013129;28;20173;-56
2020/12/15 04:45:25;;;;;;;34.87;27.63;;;;;;;;;;5008066;28;20203;-56
2020/12/15 04:47:53;;;;;;;31.83;26.50;;;;;;;;;;5008340;28;20664;-55
2020/12/15 04:50:20;;;;;;;32.40;26.40;;;;;;;;;;5011370;28;20300;-55
2020/12/15 04:53:02;;;;;;;32.53;26.10;;;;;;;;;;5009558;28;21200;-55
2020/12/15 04:55:28;;;;;;;32.67;27.27;;;;;;;;;;5008720;28;20602;-56
2020/12/15 04:57:55;;;;;;;34.57;25.97;;;;;;;;;;5011301;28;20990;-54
2020/12/15 05:00:20;;;;;;;36.87;27.53;;;;;;;;;;5004994;28;20622;-55
2020/12/15 05:02:51;;;;;;;37.90;29.13;;;;;;;;;;5015165;28;20636;-55
2020/12/15 05:05:16;;;;;;;35.37;26.90;;;;;;;;;;5004914;28;20173;-55
2020/12/15 05:07:43;;;;;;;36.20;26.63;;;;;;;;;;5012192;28;20597;-54
2020/12/15 05:10:09;;;;;;;32.23;26.37;;;;;;;;;;4997595;28;20205;-57
2020/12/15 05:12:34;;;;;;;36.37;26.40;;;;;;;;;;5014181;28;20648;-57
2020/12/15 05:14:59;;;;;;;35.97;26.73;;;;;;;;;;5016416;28;21166;-55
2020/12/15 05:17:32;;;;;;;33.58;26.20;;;;;;;;;;5018038;28;20590;-55
2020/12/15 05:20:01;;;;;;;35.53;27.93;;;;;;;;;;5007991;28;20194;-55
2020/12/15 05:22:39;;;;;;;32.80;26.27;;;;;;;;;;5017925;28;20599;-55
2020/12/15 05:25:04;;;;;;;30.73;23.73;;;;;;;;;;5006804;28;20713;-55
2020/12/15 05:27:30;;;;;;;29.80;23.80;;;;;;;;;;5010282;28;20596;-55
2020/12/15 05:30:05;;;;;;;33.00;24.15;;;;;;;;;;5002826;28;20208;-55
2020/12/15 05:32:31;;;;;;;31.03;23.67;;;;;;;;;;5005925;28;20180;-55
2020/12/15 05:35:05;;;;;;;30.67;25.27;;;;;;;;;;5002121;28;20601;-55
2020/12/15 05:37:30;;;;;;;30.50;23.13;;;;;;;;;;5012478;28;20705;-55
2020/12/15 05:40:01;;;;;;;30.08;22.80;;;;;;;;;;4998856;28;20624;-55
2020/12/15 05:42:27;;;;;;;31.03;24.37;;;;;;;;;;5000813;28;20182;-54
2020/12/15 05:44:54;;;;;;;29.77;24.60;;;;;;;;;;5002108;28;21299;-56
2020/12/15 05:47:22;;;;;;;27.63;22.97;;;;;;;;;;5009544;28;20169;-56
2020/12/15 05:49:48;;;;;;;33.43;26.13;;;;;;;;;;5018779;28;20709;-56
2020/12/15 05:52:13;;;;;;;30.90;25.67;;;;;;;;;;5016978;28;20599;-56
2020/12/15 05:54:38;;;;;;;31.05;23.38;;;;;;;;;;4999889;28;20166;-57
2020/12/15 05:57:04;;;;;;;32.38;25.27;;;;;;;;;;5010983;28;20233;-56
2020/12/15 05:59:30;;;;;;;30.73;24.33;;;;;;;;;;5017841;28;20195;-57
2020/12/15 06:02:02;;;;;;;31.23;24.80;;;;;;;;;;5015773;28;20602;-55
2020/12/15 06:04:28;;;;;;;31.60;24.77;;;;;;;;;;5017080;28;20178;-55
2020/12/15 06:06:54;;;;;;;29.93;24.77;;;;;;;;;;5002728;28;20623;-55
2020/12/15 06:09:19;;;;;;;31.60;24.60;;;;;;;;;;5006319;28;20208;-55
2020/12/15 06:11:45;;;;;;;29.17;24.73;;;;;;;;;;5011657;28;20184;-56
2020/12/15 06:14:28;;;;;;;34.70;26.50;;;;;;;;;;5010665;28;20187;-56
2020/12/15 06:16:54;;;;;;;37.10;26.47;;;;;;;;;;5006393;28;21086;-55
2020/12/15 06:19:20;;;;;;;33.23;25.00;;;;;;;;;;5004608;28;20627;-55
2020/12/15 06:21:51;;;;;;;34.90;26.30;;;;;;;;;;5006805;28;20662;-56
2020/12/15 06:24:47;;;;;;;33.03;26.17;;;;;;;;;;5003766;28;20698;-56
2020/12/15 06:27:13;;;;;;;33.37;26.03;;;;;;;;;;5007835;28;20605;-56
2020/12/15 06:29:39;;;;;;;35.63;26.13;;;;;;;;;;5005316;28;20655;-56
2020/12/15 06:32:09;;;;;;;33.90;25.37;;;;;;;;;;5014945;28;20587;-55
2020/12/15 06:34:34;;;;;;;32.57;24.87;;;;;;;;;;4999971;28;20169;-56
2020/12/15 06:36:59;;;;;;;30.87;25.93;;;;;;;;;;5007223;28;20634;-55
2020/12/15 06:39:25;;;;;;;35.57;26.97;;;;;;;;;;5006328;28;20176;-56
2020/12/15 06:42:06;;;;;;;34.60;26.57;;;;;;;;;;5009725;28;20197;-56
2020/12/15 06:44:32;;;;;;;38.37;29.27;;;;;;;;;;5000320;28;20596;-56
2020/12/15 06:46:58;;;;;;;35.17;26.30;;;;;;;;;;4998451;28;20605;-56
2020/12/15 06:49:33;;;;;;;36.40;26.90;;;;;;;;;;5016088;28;21247;-56
2020/12/15 06:51:59;;;;;;;34.63;27.17;;;;;;;;;;5010461;28;20649;-55
2020/12/15 06:54:25;;;;;;;35.33;26.70;;;;;;;;;;5019541;28;20598;-56
2020/12/15 06:57:16;;;;;;;37.10;27.93;;;;;;;;;;5017055;28;20592;-56
2020/12/15 06:59:41;;;;;;;34.10;25.40;;;;;;;;;;5017425;28;20188;-56
2020/12/15 07:02:10;;;;;;;35.47;26.80;;;;;;;;;;5015534;28;20703;-56
2020/12/15 07:04:43;;;;;;;33.67;26.20;;;;;;;;;;5012895;28;20213;-56
2020/12/15 07:07:08;;;;;;;36.70;26.63;;;;;;;;;;5007950;28;20616;-57
2020/12/15 07:09:34;;;;;;;32.67;25.20;;;;;;;;;;5016412;28;20639;-56
2020/12/15 07:12:01;;;;;;;32.17;25.33;;;;;;;;;;5019678;28;20822;-56
2020/12/15 07:14:26;;;;;;;32.80;24.50;;;;;;;;;;5019569;28;20659;-56
2020/12/15 07:16:55;;;;;;;35.35;27.42;;;;;;;;;;5002952;28;21158;-56
2020/12/15 07:19:21;;;;;;;33.63;26.13;;;;;;;;;;5019349;28;20238;-56
2020/12/15 07:21:47;;;;;;;35.40;27.50;;;;;;;;;;5018929;28;20616;-55
2020/12/15 07:24:13;;;;;;;32.08;24.20;;;;;;;;;;5020468;28;20615;-56
2020/12/15 07:26:38;;;;;;;31.97;24.57;;;;;;;;;;5015922;28;20224;-56
2020/12/15 07:29:03;;;;;;;33.70;24.53;;;;;;;;;;5015142;28;20892;-56
2020/12/15 07:31:29;;;;;;;31.50;23.70;;;;;;;;;;5011667;28;20191;-56
2020/12/15 07:34:07;;;;;;;34.43;24.30;;;;;;;;;;5014101;28;20183;-56
2020/12/15 07:36:33;;;;;;;33.10;24.70;;;;;;;;;;5011644;28;20167;-55
2020/12/15 07:38:58;;;;;;;30.67;22.40;;;;;;;;;;5015279;28;20635;-57
2020/12/15 07:41:23;;;;;;;29.67;22.37;;;;;;;;;;5015755;28;20614;-56
2020/12/15 07:43:52;;;;;;;30.17;21.60;;;;;;;;;;5013816;28;20223;-56
2020/12/15 07:46:18;;;;;;;30.23;23.63;;;;;;;;;;5010406;28;20263;-56
2020/12/15 07:48:44;;;;;;;32.87;24.93;;;;;;;;;;5009231;28;21042;-56
2020/12/15 07:51:10;;;;;;;34.47;25.23;;;;;;;;;;5006465;28;20206;-56
2020/12/15 07:53:58;;;;;;;30.03;22.30;;;;;;;;;;5015981;28;20690;-57
2020/12/15 07:56:23;;;;;;;29.70;21.87;;;;;;;;;;5011996;28;20188;-56
2020/12/15 07:58:52;;;;;;;27.37;22.20;;;;;;;;;;5019190;28;20605;-56
2020/12/15 08:01:27;;;;;;;30.00;23.07;;;;;;;;;;5003885;28;20183;-56
2020/12/15 08:04:09;;;;;;;28.93;21.93;;;;;;;;;;5018792;28;20598;-56
2020/12/15 08:06:36;;;;;;;24.90;20.53;;;;;;;;;;5012385;28;20606;-56
2020/12/15 08:09:02;;;;;;;25.67;21.47;;;;;;;;;;5017101;28;20587;-57
2020/12/15 08:11:27;;;;;;;27.40;22.57;;;;;;;;;;5009296;28;20694;-56
2020/12/15 08:13:53;;;;;;;29.07;22.67;;;;;;;;;;5016011;28;20699;-57
2020/12/15 08:16:19;;;;;;;26.60;20.90;;;;;;;;;;5011639;28;20196;-57
2020/12/15 08:18:45;;;;;;;28.67;22.40;;;;;;;;;;5021930;28;20185;-56
2020/12/15 08:21:16;;;;;;;30.20;23.30;;;;;;;;;;5005269;28;20597;-57
2020/12/15 08:23:50;;;;;;;25.50;21.40;;;;;;;;;;5013490;28;20220;-58
2020/12/15 08:26:17;;;;;;;30.50;22.60;;;;;;;;;;5015916;28;20644;-57
2020/12/15 08:28:42;;;;;;;26.40;21.00;;;;;;;;;;5018359;28;20600;-56
2020/12/15 08:31:09;;;;;;;27.40;22.67;;;;;;;;;;5010665;28;20655;-57
2020/12/15 08:33:34;;;;;;;27.93;21.20;;;;;;;;;;5014833;28;20168;-56
2020/12/15 08:35:59;;;;;;;25.83;20.35;;;;;;;;;;5006942;28;20612;-57
2020/12/15 08:38:25;;;;;;;28.23;21.10;;;;;;;;;;5018583;28;20177;-57
2020/12/15 08:40:55;;;;;;;24.40;20.33;;;;;;;;;;5014819;28;20319;-57
2020/12/15 08:43:20;;;;;;;29.30;22.37;;;;;;;;;;5018405;28;21215;-57
2020/12/15 08:45:45;;;;;;;26.75;21.08;;;;;;;;;;5016259;28;20628;-57
2020/12/15 08:48:15;;;;;;;27.20;20.00;;;;;;;;;;5014126;28;20497;-56
2020/12/15 08:50:40;;;;;;;26.83;20.93;;;;;;;;;;5018288;28;20566;-56
2020/12/15 08:53:08;;;;;;;25.83;20.05;;;;;;;;;;5020820;28;20598;-57
2020/12/15 08:55:35;;;;;;;25.93;21.03;;;;;;;;;;5010099;28;20805;-56
2020/12/15 08:58:01;;;;;;;28.30;21.60;;;;;;;;;;5017944;28;20623;-57
2020/12/15 09:00:28;;;;;;;26.70;20.90;;;;;;;;;;5014375;28;20667;-56
2020/12/15 09:03:02;;;;;;;26.33;21.27;;;;;;;;;;5022376;28;20655;-57
2020/12/15 09:05:27;;;;;;;24.40;20.70;;;;;;;;;;5019869;28;21177;-56
2020/12/15 09:07:53;;;;;;;22.92;18.30;;;;;;;;;;5021091;28;21184;-58
2020/12/15 09:10:18;;;;;;;31.10;22.00;;;;;;;;;;5015606;28;20209;-56
2020/12/15 09:12:44;;;;;;;23.93;19.47;;;;;;;;;;5007137;28;20647;-56
2020/12/15 09:15:10;;;;;;;27.73;21.73;;;;;;;;;;5014118;28;20260;-57
2020/12/15 09:17:35;;;;;;;25.47;20.90;;;;;;;;;;5020152;28;20529;-57
2020/12/15 09:20:00;;;;;;;24.50;19.70;;;;;;;;;;5021020;28;20191;-56
2020/12/15 09:22:25;;;;;;;26.20;20.53;;;;;;;;;;5009264;28;20213;-58
2020/12/15 09:24:50;;;;;;;29.07;20.73;;;;;;;;;;5015352;28;20231;-58
2020/12/15 09:27:20;;;;;;;28.00;21.80;;;;;;;;;;5015724;28;20174;-58
2020/12/15 09:29:45;;;;;;;24.73;19.17;;;;;;;;;;5010146;28;20198;-57
2020/12/15 09:32:10;;;;;;;28.00;22.23;;;;;;;;;;5015589;28;21190;-58
2020/12/15 09:34:35;;;;;;;22.87;19.17;;;;;;;;;;5019285;28;20204;-58
2020/12/15 09:37:01;;;;;;;26.23;20.80;;;;;;;;;;5014581;28;20668;-58
2020/12/15 09:39:26;;;;;;;24.58;20.38;;;;;;;;;;5019255;28;20641;-57
2020/12/15 09:41:52;;;;;;;26.73;21.60;;;;;;;;;;5013066;28;20263;-57
2020/12/15 09:44:17;;;;;;;26.23;20.23;;;;;;;;;;5017093;28;20543;-57
2020/12/15 09:46:42;;;;;;;24.70;21.03;;;;;;;;;;5019248;28;20222;-57
2020/12/15 09:49:07;;;;;;;23.63;18.23;;;;;;;;;;5013463;28;20685;-58
2020/12/15 09:51:32;;;;;;;28.17;20.95;;;;;;;;;;5002601;28;20641;-57
2020/12/15 09:53:57;;;;;;;26.40;19.85;;;;;;;;;;5017228;28;20181;-58
2020/12/15 09:56:22;;;;;;;26.67;19.40;;;;;;;;;;5017060;28;20642;-57
2020/12/15 09:58:48;;;;;;;24.77;19.33;;;;;;;;;;5016757;28;20214;-58
2020/12/15 10:01:13;;;;;;;27.98;21.13;;;;;;;;;;5009811;28;20189;-57
2020/12/15 10:03:38;;;;;;;27.17;22.00;;;;;;;;;;5016834;28;20178;-58
2020/12/15 10:06:03;;;;;;;26.60;21.10;;;;;;;;;;5016388;28;20565;-57
2020/12/15 10:08:28;;;;;;;28.08;21.77;;;;;;;;;;5009071;28;20595;-58
2020/12/15 10:10:53;;;;;;;26.43;19.70;;;;;;;;;;5001099;28;20232;-57
2020/12/15 10:13:18;;;;;;;25.23;19.45;;;;;;;;;;5002881;28;20168;-58
2020/12/15 10:15:44;;;;;;;24.77;20.70;;;;;;;;;;5009785;28;20199;-57
2020/12/15 10:18:09;;;;;;;25.70;19.93;;;;;;;;;;5015083;28;20189;-58
2020/12/15 10:20:34;;;;;;;25.97;20.53;;;;;;;;;;5014687;28;20235;-57
2020/12/15 10:22:59;;;;;;;23.93;19.53;;;;;;;;;;5010524;28;20268;-57
2020/12/15 10:25:25;;;;;;;24.05;19.95;;;;;;;;;;5015801;28;20710;-58
2020/12/15 10:27:50;;;;;;;24.65;20.20;;;;;;;;;;5016862;28;20230;-58
2020/12/15 10:30:15;;;;;;;22.27;19.05;;;;;;;;;;5018937;28;20219;-58
2020/12/15 10:32:40;;;;;;;26.75;21.05;;;;;;;;;;5012156;28;20177;-57
2020/12/15 10:35:05;;;;;;;24.85;19.98;;;;;;;;;;5006652;28;20188;-58
2020/12/15 10:37:30;;;;;;;25.73;18.80;;;;;;;;;;5004351;28;20185;-57
2020/12/15 10:39:55;;;;;;;24.77;19.70;;;;;;;;;;5012048;28;20204;-58
2020/12/15 10:42:21;;;;;;;22.47;18.20;;;;;;;;;;5017043;28;20268;-58
2020/12/15 10:44:46;;;;;;;27.30;20.05;;;;;;;;;;5009084;28;20182;-59
2020/12/15 10:47:12;;;;;;;24.43;19.20;;;;;;;;;;5001237;28;20209;-57
2020/12/15 10:49:37;;;;;;;23.63;19.20;;;;;;;;;;5012057;28;20212;-57
2020/12/15 10:52:02;;;;;;;21.65;18.25;;;;;;;;;;5014213;28;20577;-57
2020/12/15 10:54:28;;;;;;;23.67;17.80;;;;;;;;;;5018194;28;20186;-58
2020/12/15 10:56:53;;;;;;;22.20;17.60;;;;;;;;;;5015859;28;20169;-56
2020/12/15 10:59:19;;;;;;;23.23;18.65;;;;;;;;;;5007883;28;20188;-56
2020/12/15 11:01:48;;;;;;;22.70;18.50;;;;;;;;;;5017239;28;20262;-57
2020/12/15 11:04:13;;;;;;;23.27;18.27;;;;;;;;;;5017358;28;20176;-57
2020/12/15 11:06:40;;;;;;;20.35;18.23;;;;;;;;;;5019573;28;20617;-57
2020/12/15 11:09:05;;;;;;;22.23;18.20;;;;;;;;;;5016919;28;20194;-57
2020/12/15 11:11:30;;;;;;;21.70;17.88;;;;;;;;;;5013410;28;20600;-57
2020/12/15 11:13:55;;;;;;;22.15;17.63;;;;;;;;;;5015934;28;20181;-57
2020/12/15 11:16:21;;;;;;;23.05;18.02;;;;;;;;;;5014941;28;20189;-57
2020/12/15 11:18:46;;;;;;;21.17;16.27;;;;;;;;;;5012036;28;20199;-57
2020/12/15 11:21:12;;;;;;;21.13;16.58;;;;;;;;;;5017746;28;20611;-57
2020/12/15 11:23:37;;;;;;;25.10;19.20;;;;;;;;;;5017440;28;20303;-57
2020/12/15 11:26:02;;;;;;;21.65;17.13;;;;;;;;;;5012458;28;20686;-57
2020/12/15 11:28:27;;;;;;;21.40;17.55;;;;;;;;;;5009540;28;20664;-57
2020/12/15 11:30:53;;;;;;;21.17;17.35;;;;;;;;;;5014294;28;20202;-57
2020/12/15 11:33:18;;;;;;;18.40;15.70;;;;;;;;;;5019276;28;20172;-57
2020/12/15 11:35:43;;;;;;;22.35;17.95;;;;;;;;;;5022032;28;20182;-57
2020/12/15 11:38:09;;;;;;;21.40;16.33;;;;;;;;;;5007541;28;20174;-57
2020/12/15 11:40:34;;;;;;;22.15;16.88;;;;;;;;;;5013140;28;20188;-57
2020/12/15 11:42:59;;;;;;;20.30;17.40;;;;;;;;;;5006253;28;20545;-57
2020/12/15 11:45:25;;;;;;;22.07;17.27;;;;;;;;;;5019146;28;20210;-57
2020/12/15 11:47:51;;;;;;;20.93;17.80;;;;;;;;;;5014785;28;20230;-58
2020/12/15 11:50:17;;;;;;;21.20;17.90;;;;;;;;;;5014550;28;21000;-58
2020/12/15 11:52:42;;;;;;;22.90;18.77;;;;;;;;;;5017007;28;20596;-59
2020/12/15 11:55:07;;;;;;;19.97;16.70;;;;;;;;;;5006404;28;20187;-57
2020/12/15 11:57:33;;;;;;;20.90;17.40;;;;;;;;;;5008318;28;20182;-58
2020/12/15 11:59:58;;;;;;;22.25;17.98;;;;;;;;;;5015509;28;20639;-57
2020/12/15 12:02:23;;;;;;;20.90;18.10;;;;;;;;;;5001868;28;20186;-57
2020/12/15 12:04:48;;;;;;;22.05;17.67;;;;;;;;;;5004491;28;20191;-58
2020/12/15 12:07:13;;;;;;;20.03;17.77;;;;;;;;;;4999871;28;20252;-58
2020/12/15 12:09:38;;;;;;;25.05;18.63;;;;;;;;;;5015519;28;20263;-56
2020/12/15 12:12:04;;;;;;;22.20;18.90;;;;;;;;;;5003806;28;20222;-57
2020/12/15 12:14:29;;;;;;;19.70;17.00;;;;;;;;;;5001463;28;20581;-56
2020/12/15 12:16:55;;;;;;;21.40;18.20;;;;;;;;;;5022849;28;20176;-56
2020/12/15 12:19:20;;;;;;;20.23;18.03;;;;;;;;;;5000002;28;20186;-56
2020/12/15 12:21:45;;;;;;;23.90;18.90;;;;;;;;;;4996128;28;20632;-56
2020/12/15 12:24:11;;;;;;;19.93;17.13;;;;;;;;;;5013540;28;20198;-57
2020/12/15 12:26:36;;;;;;;20.83;17.87;;;;;;;;;;5003056;28;20301;-58
2020/12/15 12:29:01;;;;;;;21.57;17.80;;;;;;;;;;5007003;28;20197;-58
2020/12/15 12:31:26;;;;;;;20.83;17.90;;;;;;;;;;5008452;28;20268;-57
2020/12/15 12:33:51;;;;;;;21.20;17.10;;;;;;;;;;4997030;28;20201;-57
2020/12/15 12:36:17;;;;;;;20.42;17.10;;;;;;;;;;5023626;28;20227;-57
2020/12/15 12:38:42;;;;;;;20.03;17.10;;;;;;;;;;5015666;28;20188;-57
2020/12/15 12:41:07;;;;;;;20.42;18.33;;;;;;;;;;5001323;28;20245;-56
2020/12/15 12:43:32;;;;;;;21.92;17.92;;;;;;;;;;5017845;28;20228;-57
2020/12/15 12:45:57;;;;;;;22.52;18.67;;;;;;;;;;5023028;28;20192;-57
2020/12/15 12:48:22;;;;;;;20.83;17.77;;;;;;;;;;5007867;28;21001;-57
2020/12/15 12:50:47;;;;;;;22.83;19.73;;;;;;;;;;5007948;28;20235;-56
2020/12/15 12:53:13;;;;;;;19.60;16.80;;;;;;;;;;5002938;28;20627;-56
2020/12/15 12:55:41;;;;;;;21.50;18.03;;;;;;;;;;5017363;28;20182;-56
2020/12/15 12:58:06;;;;;;;21.67;18.70;;;;;;;;;;5004542;28;20767;-57
2020/12/15 13:00:31;;;;;;;20.63;18.43;;;;;;;;;;5003761;28;20620;-61
2020/12/15 13:02:56;;;;;;;22.10;18.70;;;;;;;;;;5001080;28;20184;-57
2020/12/15 13:05:22;;;;;;;20.60;17.63;;;;;;;;;;5008166;28;20198;-57
2020/12/15 13:07:47;;;;;;;20.93;18.50;;;;;;;;;;5015605;28;21865;-57
2020/12/15 13:10:13;;;;;;;23.67;19.40;;;;;;;;;;5004415;28;20198;-57
2020/12/15 13:12:39;;;;;;;23.90;19.00;;;;;;;;;;5008987;28;20204;-55
2020/12/15 13:15:04;;;;;;;22.90;19.83;;;;;;;;;;5012668;28;20709;-56
2020/12/15 13:17:29;;;;;;;22.87;20.00;;;;;;;;;;5016572;28;20175;-56
2020/12/15 13:19:54;;;;;;;22.42;19.50;;;;;;;;;;4999440;28;20320;-57
2020/12/15 13:22:24;;;;;;;21.20;18.88;;;;;;;;;;5004310;28;20204;-56
2020/12/15 13:24:49;;;;;;;21.67;19.30;;;;;;;;;;5006892;28;20238;-56
2020/12/15 13:27:14;;;;;;;20.77;18.58;;;;;;;;;;5001684;28;20670;-56
2020/12/15 13:29:40;;;;;;;20.27;17.45;;;;;;;;;;5016140;28;20213;-57
2020/12/15 13:32:05;;;;;;;20.88;18.45;;;;;;;;;;5007159;28;20184;-58
2020/12/15 13:34:30;;;;;;;21.65;18.65;;;;;;;;;;5016820;28;20211;-58
2020/12/15 13:36:55;;;;;;;23.35;18.95;;;;;;;;;;5017249;28;20185;-57
2020/12/15 13:39:20;;;;;;;26.00;21.07;;;;;;;;;;5016331;28;20177;-58
2020/12/15 13:41:45;;;;;;;23.48;20.98;;;;;;;;;;5009847;28;20183;-57
2020/12/15 13:44:10;;;;;;;22.85;20.35;;;;;;;;;;5018190;28;20190;-57
2020/12/15 13:46:36;;;;;;;23.67;20.92;;;;;;;;;;5008374;28;20566;-58
2020/12/15 13:49:02;;;;;;;22.58;20.15;;;;;;;;;;5013145;28;20188;-58
2020/12/15 13:51:28;;;;;;;22.90;20.00;;;;;;;;;;5013513;28;20176;-58
2020/12/15 13:53:53;;;;;;;26.17;21.10;;;;;;;;;;5007150;28;21179;-58
2020/12/15 13:56:18;;;;;;;22.77;20.35;;;;;;;;;;5008716;28;20196;-58
2020/12/15 13:58:43;;;;;;;25.23;20.40;;;;;;;;;;5003697;28;20235;-57
2020/12/15 14:01:09;;;;;;;24.58;21.73;;;;;;;;;;5020351;28;20547;-58
2020/12/15 14:03:34;;;;;;;20.90;18.40;;;;;;;;;;5013594;28;20184;-57
2020/12/15 14:05:59;;;;;;;24.63;21.30;;;;;;;;;;5007584;28;20186;-57
2020/12/15 14:08:24;;;;;;;23.33;20.48;;;;;;;;;;5011445;28;20239;-57
2020/12/15 14:10:49;;;;;;;26.55;20.17;;;;;;;;;;5004506;28;20208;-57
2020/12/15 14:13:15;;;;;;;22.48;20.08;;;;;;;;;;4989641;28;20205;-56